Time;durP1;ratioP1;P1;durP2;ratioP2;P2;SDS_P1;SDS_P2;PMS_P1;PMS_P2;Temp;Humidity;BMP_temperature;BMP_pressure;BME280_temperature;BME280_humidity;BME280_pressure;Samples;Min_cycle;Max_cycle;Signal;HPM_P1;HPM_P2
2022/06/17 00:01:37;;;;;;;12.52;10.70;;;15.70;99.90;;;;;;5093850;28;20036;-70
2022/06/17 00:04:03;;;;;;;15.48;11.20;;;15.60;99.90;;;;;;5094382;28;20105;-70
2022/06/17 00:06:34;;;;;;;14.95;12.02;;;15.60;99.90;;;;;;5092965;28;20408;-70
2022/06/17 00:09:00;;;;;;;16.05;11.32;;;15.60;99.90;;;;;;5093175;28;20055;-70
2022/06/17 00:11:35;;;;;;;12.55;11.18;;;15.60;99.90;;;;;;5092485;28;20040;-70
2022/06/17 00:14:02;;;;;;;13.40;11.68;;;15.60;99.90;;;;;;5094129;28;20119;-70
2022/06/17 00:16:29;;;;;;;14.35;12.18;;;15.60;99.90;;;;;;5093960;28;20493;-70
2022/06/17 00:18:54;;;;;;;15.05;10.90;;;15.60;99.90;;;;;;5092632;28;20048;-71
2022/06/17 00:21:33;;;;;;;13.25;10.68;;;15.50;99.90;;;;;;5092248;28;20036;-70
2022/06/17 00:24:00;;;;;;;14.38;12.25;;;15.50;99.90;;;;;;5094021;28;20046;-71
2022/06/17 00:26:26;;;;;;;14.95;11.60;;;15.50;99.90;;;;;;5093876;28;20036;-70
2022/06/17 00:28:52;;;;;;;14.68;11.75;;;15.50;99.90;;;;;;5093688;28;20097;-70
2022/06/17 00:31:17;;;;;;;17.05;13.15;;;15.50;99.90;;;;;;5093520;28;20402;-71
2022/06/17 00:33:44;;;;;;;17.70;13.80;;;15.50;99.90;;;;;;5092455;28;20048;-70
2022/06/17 00:36:18;;;;;;;14.55;12.38;;;15.50;99.90;;;;;;5093679;28;20040;-71
2022/06/17 00:38:45;;;;;;;17.27;12.48;;;15.50;99.90;;;;;;5093608;28;20089;-71
2022/06/17 00:41:18;;;;;;;14.05;12.27;;;15.60;99.90;;;;;;5091962;28;20036;-70
2022/06/17 00:43:44;;;;;;;20.80;13.15;;;15.50;99.90;;;;;;5093544;28;20115;-70
2022/06/17 00:46:33;;;;;;;16.50;13.18;;;15.60;99.90;;;;;;5093496;28;20043;-70
2022/06/17 00:49:09;;;;;;;22.70;13.05;;;15.50;99.90;;;;;;5092463;28;20180;-70
2022/06/17 00:51:45;;;;;;;16.42;13.05;;;15.40;99.90;;;;;;5092858;28;20527;-70
2022/06/17 00:54:25;;;;;;;16.05;13.93;;;15.40;99.90;;;;;;5093536;28;20115;-70
2022/06/17 00:56:51;;;;;;;12.85;11.35;;;15.40;99.90;;;;;;5092351;28;20048;-71
2022/06/17 00:59:17;;;;;;;15.90;12.85;;;15.40;99.90;;;;;;5091877;28;20040;-70
2022/06/17 01:02:05;;;;;;;13.82;12.38;;;15.30;99.90;;;;;;5092719;28;20039;-70
2022/06/17 01:04:40;;;;;;;15.00;11.95;;;15.20;99.90;;;;;;5092110;28;20039;-71
2022/06/17 01:07:18;;;;;;;21.58;13.48;;;15.20;99.90;;;;;;5091787;28;20513;-71
2022/06/17 01:09:57;;;;;;;15.13;13.52;;;15.20;99.90;;;;;;5091711;28;20048;-71
2022/06/17 01:12:54;;;;;;;16.15;13.27;;;15.10;99.90;;;;;;5092830;28;20032;-70
2022/06/17 01:15:23;;;;;;;17.50;12.23;;;15.00;99.90;;;;;;5074078;28;20044;-70
2022/06/17 01:17:50;;;;;;;17.80;13.23;;;15.00;99.90;;;;;;5091465;28;20059;-71
2022/06/17 01:20:17;;;;;;;17.75;13.52;;;14.90;99.90;;;;;;5092518;28;20046;-70
2022/06/17 01:22:49;;;;;;;19.33;14.00;;;14.90;99.90;;;;;;5092652;28;20039;-71
2022/06/17 01:25:19;;;;;;;16.17;12.85;;;14.90;99.90;;;;;;5091777;28;20035;-71
2022/06/17 01:27:48;;;;;;;17.42;14.23;;;14.90;99.90;;;;;;5091461;28;20032;-70
2022/06/17 01:30:19;;;;;;;18.70;13.25;;;14.80;99.90;;;;;;5091032;28;20036;-70
2022/06/17 01:32:52;;;;;;;17.42;12.85;;;14.80;99.90;;;;;;5092525;28;20043;-70
2022/06/17 01:35:22;;;;;;;14.77;12.13;;;14.70;99.90;;;;;;5091224;28;20050;-70
2022/06/17 01:37:48;;;;;;;17.15;12.95;;;14.70;99.90;;;;;;5091218;28;20050;-71
2022/06/17 01:40:14;;;;;;;17.58;12.95;;;14.60;99.90;;;;;;5090943;28;20618;-70
2022/06/17 01:42:39;;;;;;;16.55;13.02;;;14.50;99.90;;;;;;5088538;28;20649;-70
2022/06/17 01:45:09;;;;;;;17.35;13.30;;;14.50;99.90;;;;;;5104314;28;20043;-70
2022/06/17 01:47:38;;;;;;;18.75;13.75;;;14.60;99.90;;;;;;5111445;28;20122;-71
2022/06/17 01:50:09;;;;;;;19.63;13.65;;;14.60;99.90;;;;;;5107829;28;20040;-71
2022/06/17 01:52:52;;;;;;;16.05;13.35;;;14.60;99.90;;;;;;5104201;28;20039;-70
2022/06/17 01:55:28;;;;;;;18.23;13.40;;;14.60;99.90;;;;;;5112680;28;20032;-70
2022/06/17 01:58:06;;;;;;;18.08;13.10;;;14.60;99.90;;;;;;5093844;28;20050;-70
2022/06/17 02:00:33;;;;;;;20.92;13.98;;;14.60;99.90;;;;;;5112193;28;20036;-70
2022/06/17 02:03:15;;;;;;;17.30;14.43;;;14.60;99.90;;;;;;5111008;28;20036;-71
2022/06/17 02:05:45;;;;;;;19.33;14.27;;;14.60;99.90;;;;;;5111409;28;20047;-70
2022/06/17 02:08:10;;;;;;;16.52;14.65;;;14.70;99.90;;;;;;5111159;28;20050;-70
2022/06/17 02:10:41;;;;;;;16.20;12.63;;;14.50;99.90;;;;;;5112068;28;20405;-70
2022/06/17 02:13:08;;;;;;;18.45;14.75;;;14.60;99.90;;;;;;5111302;28;20112;-70
2022/06/17 02:15:35;;;;;;;18.75;14.43;;;14.50;99.90;;;;;;5111049;28;20104;-70
2022/06/17 02:18:03;;;;;;;17.13;12.90;;;14.50;99.90;;;;;;5111270;28;20039;-70
2022/06/17 02:20:29;;;;;;;15.88;12.77;;;14.50;99.90;;;;;;5110930;28;20047;-70
2022/06/17 02:22:56;;;;;;;14.15;12.45;;;14.50;99.90;;;;;;5111195;28;20032;-70
2022/06/17 02:25:31;;;;;;;15.48;13.27;;;14.40;99.90;;;;;;5111156;28;20044;-70
2022/06/17 02:28:02;;;;;;;17.48;13.27;;;14.40;99.90;;;;;;5111260;28;20051;-71
2022/06/17 02:30:29;;;;;;;16.77;13.10;;;14.40;99.90;;;;;;5112079;28;20036;-71
2022/06/17 02:32:58;;;;;;;16.58;12.75;;;14.30;99.90;;;;;;5112182;28;20035;-70
2022/06/17 02:35:34;;;;;;;17.88;13.80;;;14.30;99.90;;;;;;5111084;28;20039;-70
2022/06/17 02:38:00;;;;;;;21.10;14.73;;;14.30;99.90;;;;;;5111999;28;20051;-71
2022/06/17 02:40:36;;;;;;;18.08;14.63;;;14.30;99.90;;;;;;5111733;28;20036;-70
2022/06/17 02:43:06;;;;;;;18.65;14.90;;;14.30;99.90;;;;;;5112187;28;20036;-71
2022/06/17 02:45:35;;;;;;;19.67;14.65;;;14.30;99.90;;;;;;5110977;28;20043;-70
2022/06/17 02:48:04;;;;;;;16.73;14.43;;;14.30;99.90;;;;;;5110912;28;20099;-70
2022/06/17 02:50:30;;;;;;;21.63;14.50;;;14.30;99.90;;;;;;5111613;28;20044;-70
2022/06/17 02:52:59;;;;;;;16.90;14.07;;;14.30;99.90;;;;;;5110653;28;20055;-70
2022/06/17 02:55:33;;;;;;;23.77;15.07;;;14.30;99.90;;;;;;5110751;28;20048;-70
2022/06/17 02:58:34;;;;;;;18.52;14.82;;;14.20;99.90;;;;;;5110607;28;20122;-70
2022/06/17 03:00:59;;;;;;;18.40;14.10;;;14.20;99.90;;;;;;5074356;28;20082;-70
2022/06/17 03:03:26;;;;;;;22.65;15.35;;;14.30;99.90;;;;;;5101769;28;20458;-70
2022/06/17 03:05:52;;;;;;;17.30;14.45;;;14.30;99.90;;;;;;5111833;28;20489;-70
2022/06/17 03:08:24;;;;;;;16.42;14.63;;;14.30;99.90;;;;;;5111894;28;20074;-70
2022/06/17 03:10:52;;;;;;;19.63;14.02;;;14.40;99.90;;;;;;5113951;28;20187;-70
2022/06/17 03:13:20;;;;;;;21.88;14.60;;;14.30;99.90;;;;;;5115519;28;20043;-71
2022/06/17 03:15:49;;;;;;;16.52;13.52;;;14.30;99.90;;;;;;5115424;28;20082;-70
2022/06/17 03:18:15;;;;;;;21.52;15.93;;;14.40;99.90;;;;;;5114033;28;20432;-70
2022/06/17 03:20:42;;;;;;;20.35;15.05;;;14.40;99.90;;;;;;5115357;28;20036;-70
2022/06/17 03:23:25;;;;;;;19.40;14.90;;;14.30;99.90;;;;;;5114156;28;20058;-70
2022/06/17 03:25:56;;;;;;;17.38;15.07;;;14.40;99.90;;;;;;5115377;28;20035;-70
2022/06/17 03:28:30;;;;;;;16.00;13.68;;;14.30;99.90;;;;;;5115614;28;20039;-70
2022/06/17 03:31:14;;;;;;;18.63;14.27;;;14.40;99.90;;;;;;5115071;28;20036;-70
2022/06/17 03:34:01;;;;;;;16.63;14.05;;;14.40;99.90;;;;;;5113779;28;20039;-70
2022/06/17 03:36:48;;;;;;;19.20;14.25;;;14.40;99.90;;;;;;5114276;28;20040;-70
2022/06/17 03:39:24;;;;;;;17.83;13.60;;;14.40;99.90;;;;;;5115251;28;20043;-70
2022/06/17 03:41:55;;;;;;;16.08;14.10;;;14.50;99.90;;;;;;5113729;28;20035;-70
2022/06/17 03:44:27;;;;;;;19.27;13.48;;;14.50;99.90;;;;;;5115130;28;20078;-70
2022/06/17 03:47:02;;;;;;;18.55;14.15;;;14.60;99.90;;;;;;5113715;28;20485;-70
2022/06/17 03:49:44;;;;;;;16.85;13.38;;;14.50;99.90;;;;;;5115239;28;20404;-70
2022/06/17 03:52:42;;;;;;;13.77;11.38;;;14.50;99.90;;;;;;5114713;28;20075;-70
2022/06/17 03:55:13;;;;;;;17.73;11.80;;;14.50;99.90;;;;;;5113631;28;20580;-70
2022/06/17 03:57:42;;;;;;;14.77;12.73;;;14.60;99.90;;;;;;5113816;28;20114;-70
2022/06/17 04:00:16;;;;;;;19.70;13.50;;;14.60;99.90;;;;;;5114821;28;20373;-70
2022/06/17 04:02:42;;;;;;;17.35;12.10;;;14.60;99.90;;;;;;5114273;28;20062;-70
2022/06/17 04:05:14;;;;;;;14.30;11.75;;;14.50;99.90;;;;;;5114114;28;20089;-70
2022/06/17 04:07:40;;;;;;;13.75;11.20;;;14.50;99.90;;;;;;5115047;28;20096;-71
2022/06/17 04:10:06;;;;;;;16.35;12.07;;;14.50;99.90;;;;;;5114467;28;20035;-70
2022/06/17 04:12:32;;;;;;;17.20;11.93;;;14.60;99.90;;;;;;5113508;28;20050;-70
2022/06/17 04:15:26;;;;;;;15.55;11.70;;;14.60;99.90;;;;;;5114646;28;20115;-71
2022/06/17 04:17:53;;;;;;;14.35;11.48;;;14.70;99.90;;;;;;5114221;28;20535;-71
2022/06/17 04:20:51;;;;;;;15.00;11.38;;;14.70;99.90;;;;;;5112382;28;20039;-71
2022/06/17 04:23:22;;;;;;;15.00;10.95;;;14.60;99.90;;;;;;5114326;28;20045;-72
2022/06/17 04:26:11;;;;;;;13.43;11.85;;;14.70;99.90;;;;;;5112980;28;20378;-72
2022/06/17 04:28:45;;;;;;;13.20;10.93;;;14.80;99.90;;;;;;5114230;28;20563;-72
2022/06/17 04:31:18;;;;;;;20.05;11.75;;;14.80;99.90;;;;;;5114025;28;20050;-72
2022/06/17 04:33:54;;;;;;;13.40;10.52;;;14.80;99.90;;;;;;5114220;28;20042;-72
2022/06/17 04:36:30;;;;;;;15.98;11.73;;;14.90;99.90;;;;;;5112847;28;20228;-72
2022/06/17 04:39:14;;;;;;;18.23;11.82;;;14.90;99.90;;;;;;5114217;28;20046;-71
2022/06/17 04:41:43;;;;;;;14.23;9.98;;;15.00;99.90;;;;;;5113603;28;20028;-72
2022/06/17 04:44:12;;;;;;;14.45;10.85;;;15.00;99.90;;;;;;5112837;28;20040;-72
2022/06/17 04:47:02;;;;;;;13.15;11.07;;;15.10;99.90;;;;;;5112653;28;20163;-72
2022/06/17 04:49:31;;;;;;;15.05;11.75;;;15.20;99.90;;;;;;5112609;28;20035;-71
2022/06/17 04:52:07;;;;;;;14.20;11.43;;;15.20;99.90;;;;;;5113636;28;20050;-71
2022/06/17 04:54:34;;;;;;;13.60;11.73;;;15.20;99.90;;;;;;5112395;28;20092;-71
2022/06/17 04:57:02;;;;;;;13.55;11.35;;;15.30;99.90;;;;;;5112598;28;20043;-71
2022/06/17 04:59:47;;;;;;;17.40;11.43;;;15.30;99.90;;;;;;5113452;28;20243;-71
2022/06/17 05:02:20;;;;;;;16.13;11.02;;;15.30;99.90;;;;;;5112093;28;20047;-71
2022/06/17 05:04:51;;;;;;;13.15;10.57;;;15.40;99.90;;;;;;5113630;28;20040;-71
2022/06/17 05:07:17;;;;;;;16.15;10.88;;;15.40;99.90;;;;;;5112331;28;20115;-73
2022/06/17 05:09:49;;;;;;;13.35;11.05;;;15.50;99.90;;;;;;5111911;28;20520;-72
2022/06/17 05:12:26;;;;;;;12.23;10.93;;;15.50;99.90;;;;;;5113012;28;20051;-72
2022/06/17 05:15:00;;;;;;;13.50;10.25;;;15.50;99.90;;;;;;5111964;28;20096;-73
2022/06/17 05:17:26;;;;;;;13.02;11.60;;;15.50;99.90;;;;;;5111988;28;20088;-71
2022/06/17 05:19:53;;;;;;;14.95;11.02;;;15.60;99.90;;;;;;5111610;28;20040;-72
2022/06/17 05:22:31;;;;;;;15.75;11.93;;;15.60;99.90;;;;;;5111523;28;20051;-72
2022/06/17 05:24:58;;;;;;;16.15;11.63;;;15.60;99.90;;;;;;5112187;28;20044;-72
2022/06/17 05:27:23;;;;;;;14.52;10.70;;;15.70;99.90;;;;;;5111703;28;20081;-72
2022/06/17 05:29:49;;;;;;;14.40;11.23;;;15.70;99.90;;;;;;5112834;28;20448;-73
2022/06/17 05:32:18;;;;;;;14.30;10.95;;;15.70;99.90;;;;;;5111855;28;20039;-72
2022/06/17 05:34:44;;;;;;;14.85;10.50;;;15.70;99.90;;;;;;5111629;28;20050;-73
2022/06/17 05:37:10;;;;;;;14.05;10.70;;;15.70;99.90;;;;;;5112897;28;20427;-73
2022/06/17 05:39:36;;;;;;;15.18;10.57;;;15.70;99.90;;;;;;5111424;28;20043;-71
2022/06/17 05:42:01;;;;;;;14.82;11.00;;;15.70;99.90;;;;;;5112581;28;20039;-72
2022/06/17 05:44:27;;;;;;;12.05;10.25;;;15.80;99.90;;;;;;5111497;28;20074;-71
2022/06/17 05:46:52;;;;;;;15.20;10.75;;;15.80;99.90;;;;;;5111638;28;20027;-70
2022/06/17 05:49:18;;;;;;;13.25;10.18;;;15.80;99.90;;;;;;5111622;28;20104;-71
2022/06/17 05:51:43;;;;;;;12.18;9.60;;;15.80;99.90;;;;;;5112173;28;20123;-71
2022/06/17 05:54:09;;;;;;;12.82;10.35;;;15.90;99.90;;;;;;5112403;28;20058;-71
2022/06/17 05:56:35;;;;;;;13.00;9.75;;;15.90;99.90;;;;;;5111302;28;20050;-71
2022/06/17 05:59:01;;;;;;;14.18;9.55;;;15.90;99.90;;;;;;5112424;28;20047;-71
2022/06/17 06:01:26;;;;;;;15.20;11.25;;;16.00;99.90;;;;;;5112235;28;20083;-72
2022/06/17 06:03:52;;;;;;;11.88;9.40;;;16.10;99.90;;;;;;5112331;28;20071;-71
2022/06/17 06:06:17;;;;;;;13.80;10.27;;;16.10;99.90;;;;;;5111077;28;20447;-71
2022/06/17 06:08:43;;;;;;;10.93;9.45;;;16.20;99.90;;;;;;5111120;28;20051;-71
2022/06/17 06:11:08;;;;;;;12.60;10.32;;;16.30;99.90;;;;;;5112138;28;20043;-71
2022/06/17 06:13:34;;;;;;;10.25;9.05;;;16.30;99.90;;;;;;5112193;28;20078;-72
2022/06/17 06:16:01;;;;;;;11.75;9.98;;;16.30;99.90;;;;;;5111028;28;20040;-71
2022/06/17 06:18:30;;;;;;;15.30;10.55;;;16.30;99.90;;;;;;5110895;28;20035;-71
2022/06/17 06:20:55;;;;;;;14.10;9.95;;;16.30;99.90;;;;;;5111909;28;20046;-71
2022/06/17 06:23:21;;;;;;;12.55;9.88;;;16.40;99.90;;;;;;5111173;28;20039;-72
2022/06/17 06:25:47;;;;;;;14.13;9.77;;;16.40;99.90;;;;;;5110866;28;20088;-72
2022/06/17 06:28:16;;;;;;;16.63;10.88;;;16.40;99.90;;;;;;5112202;28;20028;-71
2022/06/17 06:30:42;;;;;;;13.27;10.20;;;16.40;99.90;;;;;;5112070;28;20047;-71
2022/06/17 06:33:09;;;;;;;10.90;9.32;;;16.40;99.90;;;;;;5111991;28;20509;-71
2022/06/17 06:35:37;;;;;;;14.77;10.38;;;16.50;99.90;;;;;;5110703;28;20123;-71
2022/06/17 06:38:04;;;;;;;13.13;10.75;;;16.60;99.90;;;;;;5112141;28;20055;-71
2022/06/17 06:40:30;;;;;;;12.85;9.93;;;16.60;99.90;;;;;;5111860;28;20054;-71
2022/06/17 06:42:57;;;;;;;11.98;10.23;;;16.60;99.90;;;;;;5111086;28;20082;-71
2022/06/17 06:45:27;;;;;;;12.50;10.40;;;16.70;99.90;;;;;;5114929;28;20046;-71
2022/06/17 06:47:55;;;;;;;14.07;10.30;;;16.70;99.90;;;;;;5114842;28;20042;-71
2022/06/17 06:50:24;;;;;;;13.75;9.82;;;16.70;99.90;;;;;;5114490;28;20031;-71
2022/06/17 06:52:49;;;;;;;14.27;10.02;;;16.80;99.90;;;;;;5114914;28;20489;-72
2022/06/17 06:55:16;;;;;;;13.63;11.18;;;16.90;99.90;;;;;;5115964;28;20123;-71
2022/06/17 06:57:49;;;;;;;15.15;9.80;;;16.90;99.90;;;;;;5115964;28;20122;-71
2022/06/17 07:00:18;;;;;;;18.15;10.65;;;17.10;99.90;;;;;;5115693;28;20042;-71
2022/06/17 07:02:44;;;;;;;15.52;10.77;;;17.10;99.90;;;;;;5115783;28;20162;-71
2022/06/17 07:05:10;;;;;;;12.05;9.32;;;17.30;99.90;;;;;;5097753;28;20517;-71
2022/06/17 07:07:35;;;;;;;14.68;8.50;;;17.50;99.90;;;;;;5115855;28;20046;-71
2022/06/17 07:10:01;;;;;;;12.02;8.27;;;17.60;99.90;;;;;;5114074;28;20036;-71
2022/06/17 07:12:26;;;;;;;11.30;7.78;;;17.80;99.90;;;;;;5114202;28;20039;-71
2022/06/17 07:14:52;;;;;;;12.02;7.38;;;18.00;99.90;;;;;;5114208;28;20047;-71
2022/06/17 07:17:18;;;;;;;12.85;8.23;;;18.20;99.90;;;;;;5115510;28;20044;-72
2022/06/17 07:19:43;;;;;;;10.85;8.15;;;18.40;99.90;;;;;;5114123;28;20046;-71
2022/06/17 07:22:09;;;;;;;10.32;7.55;;;18.60;99.90;;;;;;5115245;28;20118;-71
2022/06/17 07:24:35;;;;;;;11.35;7.63;;;18.80;99.90;;;;;;5115397;28;20104;-72
2022/06/17 07:27:01;;;;;;;11.43;7.03;;;18.80;99.90;;;;;;5114080;28;20051;-71
2022/06/17 07:29:27;;;;;;;9.07;7.65;;;18.90;99.90;;;;;;5114222;28;20043;-71
2022/06/17 07:31:53;;;;;;;9.13;7.03;;;18.90;99.90;;;;;;5114879;28;20043;-71
2022/06/17 07:34:18;;;;;;;9.55;7.47;;;19.00;99.90;;;;;;5115450;28;20453;-71
2022/06/17 07:42:12;;;;;;;9.48;6.30;;;19.10;99.90;;;;;;5114949;28;20442;-71
2022/06/17 07:44:38;;;;;;;10.13;7.15;;;19.20;99.90;;;;;;5115224;28;20042;-71
2022/06/17 07:47:04;;;;;;;9.77;6.47;;;19.30;99.90;;;;;;5113746;28;20114;-71
2022/06/17 07:49:30;;;;;;;9.93;7.07;;;19.40;99.90;;;;;;5113995;28;20043;-71
2022/06/17 07:51:57;;;;;;;9.90;7.20;;;19.60;99.90;;;;;;5114624;28;20040;-71
2022/06/17 07:54:22;;;;;;;9.27;6.65;;;19.90;99.90;;;;;;5113089;28;20043;-71
2022/06/17 07:56:48;;;;;;;9.88;6.50;;;20.20;99.90;;;;;;5113233;28;20051;-71
2022/06/17 07:59:13;;;;;;;8.18;6.78;;;20.50;99.90;;;;;;5114891;28;20127;-72
2022/06/17 08:01:39;;;;;;;8.07;5.95;;;20.90;99.90;;;;;;5107892;28;20036;-72
2022/06/17 08:04:05;;;;;;;7.78;5.35;;;21.30;99.60;;;;;;5082036;28;20044;-72
2022/06/17 08:06:31;;;;;;;8.95;5.80;;;21.50;99.00;;;;;;5088431;28;20039;-72
2022/06/17 08:08:56;;;;;;;6.68;5.68;;;21.70;98.00;;;;;;5094295;28;20036;-72
2022/06/17 08:11:22;;;;;;;9.60;5.85;;;21.90;97.00;;;;;;5075703;28;20040;-72
2022/06/17 08:13:49;;;;;;;7.80;5.90;;;22.10;96.60;;;;;;5092844;28;20047;-72
2022/06/17 08:16:15;;;;;;;6.60;5.30;;;22.30;95.60;;;;;;5094145;28;20046;-71
2022/06/17 08:18:41;;;;;;;8.75;5.10;;;22.60;95.00;;;;;;5094010;28;20044;-71
2022/06/17 08:21:08;;;;;;;8.32;5.20;;;22.80;95.00;;;;;;5093634;28;20042;-71
2022/06/17 08:23:34;;;;;;;8.63;5.53;;;22.90;93.90;;;;;;5093676;28;20118;-72
2022/06/17 08:26:00;;;;;;;8.57;6.07;;;22.80;92.40;;;;;;5092552;28;20517;-71
2022/06/17 08:28:28;;;;;;;9.05;5.78;;;22.90;93.30;;;;;;5092849;28;20169;-71
2022/06/17 08:30:55;;;;;;;10.18;6.22;;;23.00;92.90;;;;;;5092491;28;20122;-72
2022/06/17 08:33:29;;;;;;;11.57;6.10;;;22.90;92.60;;;;;;5093780;28;20043;-72
2022/06/17 08:36:12;;;;;;;8.05;5.13;;;22.90;92.90;;;;;;5092460;28;20046;-71
2022/06/17 08:38:43;;;;;;;7.03;4.72;;;23.10;92.70;;;;;;5093800;28;20043;-72
2022/06/17 08:41:18;;;;;;;8.68;4.78;;;23.20;90.80;;;;;;5092032;28;20050;-72
2022/06/17 08:44:15;;;;;;;7.30;4.68;;;23.30;90.40;;;;;;5092202;28;20040;-72
2022/06/17 08:46:59;;;;;;;9.63;5.18;;;23.30;86.80;;;;;;5086469;28;20044;-72
2022/06/17 08:50:05;;;;;;;5.43;4.57;;;23.30;85.20;;;;;;5093394;28;20168;-72
2022/06/17 08:52:49;;;;;;;5.97;4.10;;;23.40;84.70;;;;;;5087403;28;20032;-72
2022/06/17 08:55:33;;;;;;;7.05;4.40;;;23.40;86.30;;;;;;5083079;28;20048;-72
2022/06/17 08:58:04;;;;;;;9.68;4.95;;;23.50;83.00;;;;;;5077746;28;20052;-72
2022/06/17 09:00:38;;;;;;;8.80;4.78;;;23.50;86.10;;;;;;5082794;28;20035;-72
2022/06/17 09:03:23;;;;;;;5.72;4.25;;;23.30;87.70;;;;;;5082098;28;20044;-72
2022/06/17 09:06:01;;;;;;;8.95;4.72;;;23.00;84.20;;;;;;5081659;28;20444;-70
2022/06/17 09:08:59;;;;;;;6.22;4.25;;;22.90;85.70;;;;;;5089057;28;20043;-71
2022/06/17 09:11:29;;;;;;;5.85;4.15;;;22.70;87.30;;;;;;5092661;28;20127;-73
2022/06/17 09:14:41;;;;;;;8.30;4.35;;;22.50;90.00;;;;;;5091974;28;20099;-73
2022/06/17 09:17:19;;;;;;;6.50;4.03;;;22.40;90.00;;;;;;5074708;28;20070;-72
2022/06/17 09:19:46;;;;;;;6.00;4.35;;;22.30;90.70;;;;;;5091696;28;20398;-72
2022/06/17 09:22:30;;;;;;;6.75;4.93;;;22.40;91.80;;;;;;5091250;28;20071;-72
2022/06/17 09:25:04;;;;;;;7.65;5.07;;;22.30;90.20;;;;;;5092763;28;20096;-72
2022/06/17 09:27:35;;;;;;;8.02;4.95;;;22.30;89.00;;;;;;5091483;28;20051;-72
2022/06/17 09:30:08;;;;;;;11.15;4.72;;;22.40;88.10;;;;;;5091196;28;20156;-72
2022/06/17 09:32:37;;;;;;;;;;;22.50;88.00;;;;;;5092944;28;20397;-72
2022/06/17 09:35:24;;;;;;;7.05;4.88;;;22.50;87.40;;;;;;5092767;28;20474;-72
2022/06/17 09:38:05;;;;;;;6.47;4.65;;;22.60;87.80;;;;;;5091359;28;20075;-72
2022/06/17 09:40:35;;;;;;;6.35;4.68;;;22.70;88.60;;;;;;5074271;28;20399;-72
2022/06/17 09:43:10;;;;;;;7.28;4.90;;;22.70;89.10;;;;;;5091018;28;20516;-72
2022/06/17 09:45:54;;;;;;;8.05;4.78;;;22.70;89.80;;;;;;5092576;28;20106;-72
2022/06/17 09:48:28;;;;;;;7.65;5.10;;;22.80;89.60;;;;;;5091102;28;20051;-73
2022/06/17 09:51:10;;;;;;;7.90;5.10;;;22.80;91.20;;;;;;5092097;28;20085;-72
2022/06/17 09:53:44;;;;;;;8.82;4.75;;;23.10;90.40;;;;;;5092105;28;20505;-72
2022/06/17 09:56:34;;;;;;;7.63;5.03;;;23.70;88.40;;;;;;5091197;28;20501;-72
2022/06/17 09:59:18;;;;;;;10.10;5.40;;;24.00;86.70;;;;;;5092183;28;20040;-72
2022/06/17 10:01:45;;;;;;;7.80;4.90;;;24.00;85.40;;;;;;5091523;28;20079;-73
2022/06/17 10:04:12;;;;;;;11.48;5.65;;;24.10;84.40;;;;;;5091161;28;20439;-72
2022/06/17 10:06:43;;;;;;;7.18;5.28;;;24.10;84.60;;;;;;5092223;28;20044;-72
2022/06/17 10:09:30;;;;;;;7.50;5.30;;;24.10;83.70;;;;;;5092105;28;20087;-72
2022/06/17 10:12:20;;;;;;;11.70;5.85;;;24.00;86.60;;;;;;5090617;28;20126;-72
2022/06/17 10:14:56;;;;;;;7.88;6.00;;;23.60;84.80;;;;;;5090734;28;20493;-73
2022/06/17 10:20:35;;;;;;;10.77;5.82;;;23.30;88.00;;;;;;5090217;28;20044;-72
2022/06/17 10:23:13;;;;;;;10.43;6.18;;;23.30;88.70;;;;;;5090564;28;20040;-71
2022/06/17 10:25:54;;;;;;;9.13;5.65;;;23.00;89.90;;;;;;5090603;28;20047;-71
2022/06/17 10:28:40;;;;;;;7.70;5.38;;;23.00;88.60;;;;;;5090573;28;20040;-70
2022/06/17 10:31:17;;;;;;;7.30;4.60;;;22.80;90.00;;;;;;5090459;28;20044;-70
2022/06/17 10:33:44;;;;;;;7.70;4.43;;;22.80;90.00;;;;;;5081330;28;20173;-70
2022/06/17 10:36:12;;;;;;;8.05;4.22;;;22.80;89.00;;;;;;5080582;28;20093;-71
2022/06/17 10:38:45;;;;;;;7.85;4.63;;;22.90;87.90;;;;;;5080210;28;20036;-70
2022/06/17 10:41:12;;;;;;;;;;;22.90;90.10;;;;;;5081022;28;20112;-71
2022/06/17 10:43:46;;;;;;;9.02;4.40;;;22.80;88.90;;;;;;5081675;28;19920;-70
2022/06/17 10:46:17;;;;;;;10.20;4.75;;;22.80;90.00;;;;;;5080939;28;20449;-69
2022/06/17 10:49:09;;;;;;;7.32;4.22;;;22.90;88.90;;;;;;5078760;28;20076;-71
2022/06/17 10:51:37;;;;;;;6.20;4.00;;;22.90;90.10;;;;;;5068608;28;20043;-71
2022/06/17 10:54:11;;;;;;;5.20;3.83;;;23.00;90.20;;;;;;5082257;28;20044;-70
2022/06/17 10:56:41;;;;;;;5.18;3.72;;;23.00;90.30;;;;;;5080087;28;20402;-71
2022/06/17 10:59:10;;;;;;;8.57;4.30;;;23.20;88.50;;;;;;5079913;28;20078;-71
2022/06/17 11:01:45;;;;;;;8.35;4.10;;;23.30;87.50;;;;;;5080457;28;20081;-71
2022/06/17 11:04:20;;;;;;;6.55;3.75;;;23.50;86.00;;;;;;5080261;28;20037;-71
2022/06/17 11:07:15;;;;;;;6.50;3.75;;;23.60;86.10;;;;;;5078550;28;20060;-71
2022/06/17 11:09:49;;;;;;;7.10;4.20;;;23.90;84.90;;;;;;5050079;28;20409;-71
2022/06/17 11:12:22;;;;;;;11.95;4.28;;;24.00;84.40;;;;;;5080425;28;20043;-71
2022/06/17 11:14:50;;;;;;;12.55;4.60;;;24.10;83.40;;;;;;5080174;28;20037;-71
2022/06/17 11:17:20;;;;;;;7.25;3.85;;;24.10;80.30;;;;;;5079660;28;20074;-72
2022/06/17 11:19:50;;;;;;;9.07;4.68;;;24.20;80.80;;;;;;5081715;28;20582;-71
2022/06/17 11:22:28;;;;;;;6.63;4.07;;;24.30;79.30;;;;;;5080576;28;20025;-71
2022/06/17 11:25:06;;;;;;;7.70;4.25;;;24.40;78.80;;;;;;5080475;28;20036;-71
2022/06/17 11:27:41;;;;;;;6.38;3.95;;;24.40;80.50;;;;;;5080515;28;20029;-71
2022/06/17 11:30:28;;;;;;;5.03;3.70;;;24.60;79.40;;;;;;5079030;28;20058;-71
2022/06/17 11:32:56;;;;;;;6.30;4.10;;;24.80;78.60;;;;;;5084341;28;20035;-72
2022/06/17 11:35:28;;;;;;;5.75;4.25;;;24.90;78.70;;;;;;5085508;28;20107;-72
2022/06/17 11:37:55;;;;;;;8.93;4.28;;;25.00;77.80;;;;;;5083092;28;20509;-73
2022/06/17 11:40:25;;;;;;;6.32;4.63;;;25.00;79.10;;;;;;5076679;28;20040;-72
2022/06/17 11:43:06;;;;;;;8.43;4.72;;;25.00;79.20;;;;;;5073146;28;20564;-72
2022/06/17 11:45:36;;;;;;;7.88;4.57;;;25.10;76.50;;;;;;5073564;28;20043;-71
2022/06/17 11:48:09;;;;;;;7.47;4.20;;;25.10;78.70;;;;;;5074655;28;20792;-71
2022/06/17 11:50:40;;;;;;;7.95;4.22;;;25.10;76.60;;;;;;5056183;28;20091;-71
2022/06/17 11:53:17;;;;;;;8.05;4.60;;;25.20;78.10;;;;;;5074498;28;20033;-72
2022/06/17 11:55:48;;;;;;;7.07;4.80;;;25.30;75.50;;;;;;5073130;28;20505;-71
2022/06/17 11:58:17;;;;;;;6.30;4.30;;;25.40;77.60;;;;;;5074111;28;20043;-70
2022/06/17 12:00:52;;;;;;;6.00;3.95;;;25.60;77.60;;;;;;5079525;28;20068;-71
2022/06/17 12:03:37;;;;;;;7.65;4.53;;;25.60;80.60;;;;;;5065054;28;20517;-71
2022/06/17 12:06:07;;;;;;;7.15;4.28;;;25.60;75.10;;;;;;5080838;28;20518;-71
2022/06/17 12:08:40;;;;;;;6.90;4.28;;;25.70;74.10;;;;;;5072890;28;20414;-71
2022/06/17 12:11:12;;;;;;;5.97;4.80;;;25.60;75.10;;;;;;5073954;28;20063;-71
2022/06/17 12:13:46;;;;;;;9.00;4.40;;;25.70;73.30;;;;;;5072703;28;20048;-71
2022/06/17 12:16:22;;;;;;;5.97;4.10;;;25.80;72.30;;;;;;5069905;28;20058;-72
2022/06/17 12:18:53;;;;;;;7.22;4.22;;;25.90;71.80;;;;;;5082522;28;20132;-71
2022/06/17 12:21:48;;;;;;;9.20;4.75;;;26.00;72.90;;;;;;5075000;28;20090;-68
2022/06/17 12:24:26;;;;;;;9.50;3.95;;;26.00;73.10;;;;;;5072587;28;20169;-71
2022/06/17 12:27:20;;;;;;;8.73;4.13;;;25.90;72.40;;;;;;5072635;28;20059;-70
2022/06/17 12:29:55;;;;;;;7.03;4.18;;;25.90;74.30;;;;;;5072460;28;20131;-70
2022/06/17 12:32:42;;;;;;;4.25;3.85;;;25.80;73.70;;;;;;5081993;28;20043;-71
2022/06/17 12:35:50;;;;;;;6.43;3.80;;;25.70;70.00;;;;;;5082607;28;20040;-71
2022/06/17 12:38:42;;;;;;;6.97;4.10;;;25.70;70.90;;;;;;4993195;28;20108;-71
2022/06/17 12:41:22;;;;;;;5.55;3.78;;;25.70;72.90;;;;;;5000369;28;20053;-71
2022/06/17 12:44:07;;;;;;;6.18;3.42;;;25.60;74.20;;;;;;5059129;28;20123;-70
2022/06/17 12:46:51;;;;;;;5.25;3.30;;;25.70;72.80;;;;;;5080572;28;20069;-70
2022/06/17 12:55:59;;;;;;;5.78;3.30;;;26.20;74.10;;;;;;5091583;28;20394;-70
2022/06/17 12:58:31;;;;;;;6.95;2.85;;;26.40;69.30;;;;;;5010695;28;20539;-70
2022/06/17 13:01:07;;;;;;;7.03;3.63;;;26.50;68.00;;;;;;5010351;28;20077;-70
2022/06/17 13:04:01;;;;;;;7.13;3.45;;;26.60;67.20;;;;;;5049311;28;20516;-70
2022/06/17 13:06:57;;;;;;;8.23;4.68;;;26.60;65.30;;;;;;5091887;28;20409;-70
2022/06/17 13:09:23;;;;;;;4.28;3.45;;;26.50;64.10;;;;;;5093170;28;20455;-70
2022/06/17 13:11:54;;;;;;;6.03;3.78;;;26.20;65.70;;;;;;5091315;28;20040;-70
2022/06/17 13:14:48;;;;;;;4.30;3.35;;;26.10;65.70;;;;;;5091745;28;20048;-71
2022/06/17 13:17:42;;;;;;;6.90;3.15;;;26.10;65.20;;;;;;5091732;28;20650;-71
2022/06/17 13:20:49;;;;;;;4.03;3.03;;;26.10;66.00;;;;;;5091239;28;20086;-71